createdAt,value
2018-07-12T20:27:40.367Z,65.11
2018-07-12T20:28:45.128Z,64.82
2018-07-12T20:29:48.013Z,64.79
2018-07-12T20:30:53.661Z,64.59
2018-07-12T20:31:57.105Z,64.12
2018-07-12T20:33:00.041Z,64.23
2018-07-12T20:34:03.798Z,64.64
2018-07-12T20:35:07.396Z,64.15
2018-07-12T20:36:11.255Z,64.80
2018-07-12T20:37:15.919Z,64.30
2018-07-12T20:38:19.358Z,65.12
2018-07-12T20:39:23.800Z,64.87
2018-07-12T20:40:28.706Z,65.06
2018-07-12T20:41:33.237Z,64.82
2018-07-12T20:42:38.215Z,64.41
2018-07-12T20:43:41.068Z,63.71
2018-07-12T20:44:43.925Z,64.22
2018-07-12T20:45:47.323Z,64.07
2018-07-12T20:46:54.680Z,63.79
2018-07-12T20:47:57.868Z,63.82
2018-07-12T20:49:01.782Z,63.95
2018-07-12T20:50:05.393Z,64.05
2018-07-12T20:51:09.207Z,63.22
2018-07-12T20:52:13.038Z,63.61
2018-07-12T20:53:17.930Z,64.10
2018-07-12T20:54:21.680Z,63.46
2018-07-12T20:55:31.160Z,63.48
2018-07-12T20:56:35.617Z,63.75
2018-07-12T20:57:38.538Z,64.57
2018-07-12T20:58:41.445Z,64.35
2018-07-12T20:59:44.938Z,63.97
2018-07-12T21:00:47.741Z,63.78
2018-07-12T21:01:54.556Z,63.96
2018-07-12T21:02:57.995Z,64.33
2018-07-12T21:04:01.186Z,64.42
2018-07-12T21:05:04.255Z,65.20
2018-07-12T21:06:08.340Z,64.39
2018-07-12T21:07:11.261Z,64.94
2018-07-12T21:08:14.866Z,65.02
2018-07-12T21:09:17.662Z,65.18
2018-07-12T21:10:22.456Z,65.32
2018-07-12T21:11:25.288Z,64.97
2018-07-12T21:13:42.729Z,64.93
2018-07-12T21:14:47.771Z,65.01
2018-07-12T21:15:55.227Z,65.85
2018-07-12T21:16:58.882Z,65.18
2018-07-12T21:18:03.145Z,65.42
2018-07-12T21:19:07.929Z,65.84
2018-07-12T21:20:12.119Z,65.99
2018-07-12T21:22:24.489Z,65.95
2018-07-12T21:23:27.342Z,66.81
2018-07-12T21:24:33.875Z,66.47
2018-07-12T21:25:37.019Z,67.29
2018-07-12T21:26:39.886Z,68.39
2018-07-12T21:27:43.491Z,68.46
2018-07-12T21:28:47.478Z,68.09
2018-07-12T21:29:51.095Z,69.16
2018-07-12T21:30:54.559Z,69.20
2018-07-12T21:31:57.678Z,68.93
2018-07-12T21:33:01.087Z,68.98
2018-07-12T21:34:04.695Z,68.82
2018-07-12T21:35:07.911Z,68.66
2018-07-12T21:36:15.273Z,67.67
2018-07-12T21:37:18.741Z,69.23
2018-07-12T21:38:21.848Z,69.21
2018-07-12T21:39:24.619Z,68.77
2018-07-12T21:40:27.435Z,69.06
2018-07-12T21:41:30.255Z,68.67
2018-07-12T21:42:33.776Z,69.33
2018-07-12T21:43:45.489Z,69.02
2018-07-12T21:44:50.064Z,68.54
2018-07-12T21:45:54.870Z,69.21
2018-07-12T21:46:58.560Z,68.45
2018-07-12T21:48:04.627Z,68.31
2018-07-12T21:49:07.672Z,68.71
2018-07-12T21:50:13.644Z,68.02
2018-07-12T21:51:16.720Z,68.06
2018-07-12T21:52:20.217Z,68.18
2018-07-12T21:53:24.802Z,68.15
2018-07-12T21:54:29.514Z,68.73
2018-07-12T21:55:33.499Z,68.15
2018-07-12T21:56:39.035Z,68.84
2018-07-12T21:57:42.536Z,68.26
2018-07-12T21:58:46.747Z,68.14
2018-07-12T21:59:51.110Z,68.07
2018-07-12T22:00:55.034Z,68.66
2018-07-12T22:02:00.649Z,68.89
2018-07-12T22:03:05.220Z,68.93
2018-07-12T22:04:09.495Z,68.35
2018-07-12T22:05:13.209Z,68.60
2018-07-12T22:06:23.839Z,68.58
2018-07-12T22:07:26.671Z,68.73
2018-07-12T22:08:31.093Z,69.38
2018-07-12T22:09:37.785Z,68.53
2018-07-12T22:10:43.049Z,68.90
2018-07-12T22:11:46.475Z,68.72
2018-07-12T22:12:49.324Z,68.74
2018-07-12T22:13:52.320Z,69.78
2018-07-12T22:14:56.694Z,70.06
2018-07-12T22:16:02.681Z,70.55
2018-07-12T22:17:07.455Z,70.59
2018-07-12T22:18:12.142Z,69.62
2018-07-12T22:19:19.416Z,69.89
2018-07-12T22:20:22.883Z,70.25
2018-07-12T22:21:25.914Z,70.01
2018-07-12T22:22:29.610Z,70.12
2018-07-12T22:23:32.417Z,71.15
2018-07-12T22:24:36.521Z,72.00
2018-07-12T22:25:41.270Z,71.90
2018-07-12T22:26:44.880Z,72.80
2018-07-12T22:27:48.631Z,72.50
2018-07-12T22:28:52.613Z,73.39
2018-07-12T22:29:55.774Z,73.14
2018-07-12T22:31:00.379Z,73.04
2018-07-12T22:32:03.626Z,73.44
2018-07-12T22:33:09.326Z,73.28
2018-07-12T22:34:12.225Z,73.83
2018-07-12T22:35:16.240Z,73.93
2018-07-12T22:36:19.763Z,73.71
2018-07-12T22:37:22.587Z,73.86
2018-07-12T22:38:25.423Z,73.38
2018-07-12T22:39:28.260Z,74.09
2018-07-12T22:40:31.311Z,73.78
2018-07-12T22:41:34.571Z,74.14
2018-07-12T22:42:39.965Z,74.83
2018-07-12T22:43:42.969Z,75.18
2018-07-12T22:44:46.401Z,75.40
2018-07-12T22:45:55.058Z,75.06
2018-07-12T22:46:59.351Z,74.60
2018-07-12T22:48:02.672Z,74.62
2018-07-12T22:49:05.740Z,74.35
2018-07-12T22:50:08.663Z,74.71
2018-07-12T22:51:21.639Z,74.53
2018-07-12T22:52:27.332Z,74.56
2018-07-12T22:53:31.405Z,75.43
2018-07-12T22:54:40.336Z,74.78
2018-07-12T22:56:02.759Z,75.25
2018-07-12T22:57:05.580Z,75.18
2018-07-12T22:58:08.415Z,74.77
2018-07-12T22:59:14.859Z,75.50
2018-07-12T23:00:17.691Z,75.20
2018-07-12T23:01:20.818Z,74.73
2018-07-12T23:02:23.662Z,74.40
2018-07-12T23:03:27.871Z,75.05
2018-07-12T23:04:32.240Z,75.27
2018-07-12T23:05:36.692Z,75.21
2018-07-12T23:06:39.547Z,75.33
2018-07-12T23:07:42.722Z,75.47
2018-07-12T23:08:48.593Z,74.88
2018-07-12T23:09:51.993Z,74.79
2018-07-12T23:10:58.699Z,74.86
2018-07-12T23:12:02.852Z,75.82
2018-07-12T23:13:05.762Z,75.13
2018-07-12T23:14:08.559Z,76.05
2018-07-12T23:15:11.514Z,75.41
2018-07-12T23:16:14.983Z,75.87
2018-07-12T23:17:19.470Z,76.04
2018-07-12T23:18:23.454Z,76.19
2018-07-12T23:19:26.319Z,75.50
2018-07-12T23:20:29.645Z,75.75
2018-07-12T23:21:36.305Z,76.52
2018-07-12T23:22:39.139Z,75.49
2018-07-12T23:23:42.832Z,75.96
2018-07-12T23:24:46.902Z,76.04
2018-07-12T23:25:49.833Z,76.17
2018-07-12T23:26:52.884Z,75.83
2018-07-12T23:27:56.682Z,75.51
2018-07-12T23:29:00.778Z,76.08
2018-07-12T23:30:07.232Z,75.96
2018-07-12T23:31:10.382Z,75.51
2018-07-12T23:32:13.200Z,76.35
2018-07-12T23:33:16.616Z,75.86
2018-07-12T23:34:19.419Z,76.10
2018-07-12T23:35:22.201Z,76.57
2018-07-12T23:36:25.039Z,76.92
2018-07-12T23:37:28.207Z,77.78
2018-07-12T23:38:31.309Z,77.52
2018-07-12T23:39:34.181Z,77.69
2018-07-12T23:40:37.218Z,77.46
2018-07-12T23:41:40.091Z,76.83
2018-07-12T23:42:43.415Z,77.43
2018-07-12T23:43:46.215Z,77.56
2018-07-12T23:44:49.417Z,77.83
2018-07-12T23:45:52.306Z,78.35
2018-07-12T23:46:55.205Z,77.19
2018-07-12T23:47:58.974Z,77.67
2018-07-12T23:49:03.421Z,78.93
2018-07-12T23:50:06.242Z,78.95
2018-07-12T23:51:10.599Z,78.85
2018-07-12T23:52:13.622Z,78.84
2018-07-12T23:53:17.039Z,79.65
2018-07-12T23:54:19.850Z,79.06
2018-07-12T23:55:23.018Z,78.87
2018-07-12T23:56:26.693Z,79.02
2018-07-12T23:57:29.640Z,79.02
2018-07-12T23:58:32.423Z,78.65
2018-07-12T23:59:38.836Z,78.28
